F/V L'eden — FO4557 — position and weather

sailwx.info

Track history (hours):
 
Tides and Currents Weather Stations Pressure Air Temp Water Temp Dewpoint Dewpoint Depression Visibility Wind Speed Wind Dir Waves Ship Positions

F/V L'eden

Last reported at 2017-Nov-19 09:33 UTC. Time now 2017-Nov-19 12:26 UTC.
Position N 46°30' W 001°47'.

Length 12 m.

Type: Fishing. MMSI: 228112000.

Date/timePositionNaut miles runAvg speedWind from/ knotsBaromVisibWave heightAir tempDewpointWater temp
2017-Nov-19 09:33N 46°30' W 001°47'0 0.6
2017-Nov-19 09:30N 46°30' W 001°47'2 4.7
2017-Nov-19 09:01N 46°28' W 001°49'4 8.6
2017-Nov-19 08:30N 46°24' W 001°53'7 2.3
2017-Nov-19 05:37N 46°19' W 001°59'5 1.8
2017-Nov-19 02:41N 46°23' W 001°54'2 8.4
2017-Nov-19 02:30N 46°25' W 001°52'4 8.3
2017-Nov-19 02:00N 46°28' W 001°49'2 0.1
2017-Nov-18 10:01N 46°30' W 001°47'0 0.1
2017-Nov-18 10:00N 46°30' W 001°47'0 0.1
2017-Nov-18 09:30N 46°30' W 001°47'4 7.7
2017-Nov-18 09:00N 46°27' W 001°50'4 8.4
2017-Nov-18 08:30N 46°23' W 001°54'5 1.2
2017-Nov-18 04:33N 46°19' W 001°58'2 1.4
2017-Nov-18 02:55N 46°21' W 001°56'4 8.4
2017-Nov-18 02:29N 46°24' W 001°53'4 8.6
2017-Nov-18 02:00N 46°27' W 001°49'3 0.2
2017-Nov-17 09:58N 46°30' W 001°47'1 2.4
2017-Nov-17 09:30N 46°29' W 001°48'5 8.6
2017-Nov-17 08:57N 46°25' W 001°52'7 7.2
2017-Nov-17 07:57N 46°19' W 001°58'0 0.4
2017-Nov-17 07:27N 46°19' W 001°58'0 0.5
2017-Nov-17 06:56N 46°19' W 001°58'2 0.6
2017-Nov-17 03:03N 46°21' W 001°57'1 8.5
2017-Nov-17 02:58N 46°21' W 001°56'4 8.5
2017-Nov-17 02:30N 46°25' W 001°53'4 8.4
2017-Nov-17 02:00N 46°28' W 001°49'2 4.5
2017-Nov-17 01:30N 46°30' W 001°47'0 0.0
2017-Nov-16 19:20N 46°30' W 001°47'0 0.0
2017-Nov-16 10:06N 46°30' W 001°47'0 0.9
2017-Nov-16 09:58N 46°30' W 001°47'3 6.4
2017-Nov-16 09:30N 46°27' W 001°50'10 1.5
2017-Nov-16 03:13N 46°20' W 001°58'2 8.7
2017-Nov-16 02:59N 46°21' W 001°56'4 8.6
2017-Nov-16 02:30N 46°25' W 001°52'4 8.5
2017-Nov-16 02:00N 46°28' W 001°49'2 0.1
2017-Nov-15 09:40N 46°30' W 001°47'0 0.7
2017-Nov-15 09:30N 46°30' W 001°47'4 7.6
2017-Nov-15 09:00N 46°27' W 001°50'5 8.8
2017-Nov-15 08:23N 46°22' W 001°55'4 5.6
2017-Nov-15 07:44N 46°19' W 001°58'0 0.6
2017-Nov-15 07:15N 46°19' W 001°58'0 0.5
2017-Nov-15 06:44N 46°19' W 001°59'0 0.2
2017-Nov-15 05:47N 46°19' W 001°58'0 0.2
2017-Nov-15 04:49N 46°19' W 001°58'0 0.4
2017-Nov-15 03:52N 46°19' W 001°58'1 3.5
2017-Nov-15 03:30N 46°20' W 001°58'2 3.6
2017-Nov-15 03:00N 46°22' W 001°58'4 8.8
2017-Nov-15 02:30N 46°25' W 001°53'4 8.7
2017-Nov-15 02:00N 46°28' W 001°49'2 0.6
2017-Nov-14 22:36N 46°30' W 001°47'0 0.0
2017-Nov-14 10:13N 46°30' W 001°47'0 0.9
2017-Nov-14 10:00N 46°30' W 001°48'4 8.0
2017-Nov-14 09:30N 46°27' W 001°51'9 4.3
2017-Nov-14 07:23N 46°19' W 001°58'1 0.9
2017-Nov-14 05:52N 46°20' W 001°59'1 1.2
2017-Nov-14 04:56N 46°19' W 001°58'1 1.8
2017-Nov-14 04:26N 46°20' W 001°59'1 0.8
2017-Nov-14 03:28N 46°20' W 001°58'2 4.1
2017-Nov-14 03:00N 46°22' W 001°57'5 8.9
2017-Nov-14 02:28N 46°25' W 001°53'4 8.8
2017-Nov-14 02:00N 46°28' W 001°49'  
2017-Nov-10 11:10N 46°30' W 001°47'0 0.6
2017-Nov-10 10:59N 46°30' W 001°47'2 5.1
2017-Nov-10 10:30N 46°27' W 001°47'4 7.3
2017-Nov-10 10:00N 46°24' W 001°47'2 4.0
2017-Nov-10 09:30N 46°22' W 001°48'1 2.0
2017-Nov-10 09:00N 46°21' W 001°49'1 1.2
2017-Nov-10 08:27N 46°21' W 001°50'1 2.1
2017-Nov-10 08:00N 46°22' W 001°49'1 1.9
2017-Nov-10 07:30N 46°22' W 001°48'0 0.4
2017-Nov-10 07:00N 46°22' W 001°48'2 3.4
2017-Nov-10 06:29N 46°21' W 001°50'1 2.3
2017-Nov-10 06:00N 46°22' W 001°49'1 1.7
2017-Nov-10 05:30N 46°23' W 001°48'1 2.5
2017-Nov-10 05:00N 46°22' W 001°49'1 1.5
2017-Nov-10 04:30N 46°22' W 001°50'1 2.2
2017-Nov-10 04:00N 46°22' W 001°49'1 1.8
2017-Nov-10 03:30N 46°23' W 001°48'2 3.8
2017-Nov-10 03:00N 46°22' W 001°50'3 5.3
2017-Nov-10 02:30N 46°25' W 001°50'4 8.3
2017-Nov-10 02:00N 46°29' W 001°48'  
Track history (hours):
 
Tides and Currents Weather Stations Pressure Air Temp Water Temp Dewpoint Dewpoint Depression Visibility Wind Speed Wind Dir Waves Ship Positions

F/V L'eden

Last reported at 2017-Nov-19 09:33 UTC. Time now 2017-Nov-19 12:26 UTC.
Position N 46°30' W 001°47'.

Length 12 m.

Type: Fishing. MMSI: 228112000.

Date/timePositionNaut miles runAvg speedWind from/ knotsBaromVisibWave heightAir tempDewpointWater temp
2017-Nov-19 09:33N 46°30' W 001°47'0 0.6
2017-Nov-19 09:30N 46°30' W 001°47'2 4.7
2017-Nov-19 09:01N 46°28' W 001°49'4 8.6
2017-Nov-19 08:30N 46°24' W 001°53'7 2.3
2017-Nov-19 05:37N 46°19' W 001°59'5 1.8
2017-Nov-19 02:41N 46°23' W 001°54'2 8.4
2017-Nov-19 02:30N 46°25' W 001°52'4 8.3
2017-Nov-19 02:00N 46°28' W 001°49'2 0.1
2017-Nov-18 10:01N 46°30' W 001°47'0 0.1
2017-Nov-18 10:00N 46°30' W 001°47'0 0.1
2017-Nov-18 09:30N 46°30' W 001°47'4 7.7
2017-Nov-18 09:00N 46°27' W 001°50'4 8.4
2017-Nov-18 08:30N 46°23' W 001°54'5 1.2
2017-Nov-18 04:33N 46°19' W 001°58'2 1.4
2017-Nov-18 02:55N 46°21' W 001°56'4 8.4
2017-Nov-18 02:29N 46°24' W 001°53'4 8.6
2017-Nov-18 02:00N 46°27' W 001°49'3 0.2
2017-Nov-17 09:58N 46°30' W 001°47'1 2.4
2017-Nov-17 09:30N 46°29' W 001°48'5 8.6
2017-Nov-17 08:57N 46°25' W 001°52'7 7.2
2017-Nov-17 07:57N 46°19' W 001°58'0 0.4
2017-Nov-17 07:27N 46°19' W 001°58'0 0.5
2017-Nov-17 06:56N 46°19' W 001°58'2 0.6
2017-Nov-17 03:03N 46°21' W 001°57'1 8.5
2017-Nov-17 02:58N 46°21' W 001°56'4 8.5
2017-Nov-17 02:30N 46°25' W 001°53'4 8.4
2017-Nov-17 02:00N 46°28' W 001°49'2 4.5
2017-Nov-17 01:30N 46°30' W 001°47'0 0.0
2017-Nov-16 19:20N 46°30' W 001°47'0 0.0
2017-Nov-16 10:06N 46°30' W 001°47'0 0.9
2017-Nov-16 09:58N 46°30' W 001°47'3 6.4
2017-Nov-16 09:30N 46°27' W 001°50'10 1.5
2017-Nov-16 03:13N 46°20' W 001°58'2 8.7
2017-Nov-16 02:59N 46°21' W 001°56'4 8.6
2017-Nov-16 02:30N 46°25' W 001°52'4 8.5
2017-Nov-16 02:00N 46°28' W 001°49'2 0.1
2017-Nov-15 09:40N 46°30' W 001°47'0 0.7
2017-Nov-15 09:30N 46°30' W 001°47'4 7.6
2017-Nov-15 09:00N 46°27' W 001°50'5 8.8
2017-Nov-15 08:23N 46°22' W 001°55'4 5.6
2017-Nov-15 07:44N 46°19' W 001°58'0 0.6
2017-Nov-15 07:15N 46°19' W 001°58'0 0.5
2017-Nov-15 06:44N 46°19' W 001°59'0 0.2
2017-Nov-15 05:47N 46°19' W 001°58'0 0.2
2017-Nov-15 04:49N 46°19' W 001°58'0 0.4
2017-Nov-15 03:52N 46°19' W 001°58'1 3.5
2017-Nov-15 03:30N 46°20' W 001°58'2 3.6
2017-Nov-15 03:00N 46°22' W 001°58'4 8.8
2017-Nov-15 02:30N 46°25' W 001°53'4 8.7
2017-Nov-15 02:00N 46°28' W 001°49'2 0.6
2017-Nov-14 22:36N 46°30' W 001°47'0 0.0
2017-Nov-14 10:13N 46°30' W 001°47'0 0.9
2017-Nov-14 10:00N 46°30' W 001°48'4 8.0
2017-Nov-14 09:30N 46°27' W 001°51'9 4.3
2017-Nov-14 07:23N 46°19' W 001°58'1 0.9
2017-Nov-14 05:52N 46°20' W 001°59'1 1.2
2017-Nov-14 04:56N 46°19' W 001°58'1 1.8
2017-Nov-14 04:26N 46°20' W 001°59'1 0.8
2017-Nov-14 03:28N 46°20' W 001°58'2 4.1
2017-Nov-14 03:00N 46°22' W 001°57'5 8.9
2017-Nov-14 02:28N 46°25' W 001°53'4 8.8
2017-Nov-14 02:00N 46°28' W 001°49'  
2017-Nov-10 11:10N 46°30' W 001°47'0 0.6
2017-Nov-10 10:59N 46°30' W 001°47'2 5.1
2017-Nov-10 10:30N 46°27' W 001°47'4 7.3
2017-Nov-10 10:00N 46°24' W 001°47'2 4.0
2017-Nov-10 09:30N 46°22' W 001°48'1 2.0
2017-Nov-10 09:00N 46°21' W 001°49'1 1.2
2017-Nov-10 08:27N 46°21' W 001°50'1 2.1
2017-Nov-10 08:00N 46°22' W 001°49'1 1.9
2017-Nov-10 07:30N 46°22' W 001°48'0 0.4
2017-Nov-10 07:00N 46°22' W 001°48'2 3.4
2017-Nov-10 06:29N 46°21' W 001°50'1 2.3
2017-Nov-10 06:00N 46°22' W 001°49'1 1.7
2017-Nov-10 05:30N 46°23' W 001°48'1 2.5
2017-Nov-10 05:00N 46°22' W 001°49'1 1.5
2017-Nov-10 04:30N 46°22' W 001°50'1 2.2
2017-Nov-10 04:00N 46°22' W 001°49'1 1.8
2017-Nov-10 03:30N 46°23' W 001°48'2 3.8
2017-Nov-10 03:00N 46°22' W 001°50'3 5.3
2017-Nov-10 02:30N 46°25' W 001°50'4 8.3
2017-Nov-10 02:00N 46°29' W 001°48'  

Dump ship's entire track history